createdAt,value
2022-11-07T00:00:25.808Z,10.70
2022-11-07T00:03:12.491Z,10.80
2022-11-07T00:06:00.864Z,10.80
2022-11-07T00:08:47.273Z,10.80
2022-11-07T00:11:34.067Z,10.90
2022-11-07T00:14:20.550Z,11.00
2022-11-07T00:17:09.343Z,11.00
2022-11-07T00:19:55.928Z,11.00
2022-11-07T00:22:43.737Z,11.10
2022-11-07T00:25:30.069Z,11.10
2022-11-07T00:28:16.513Z,11.10
2022-11-07T00:31:03.169Z,11.10
2022-11-07T00:33:49.518Z,11.10
2022-11-07T00:36:35.957Z,11.20
2022-11-07T00:39:23.675Z,11.10
2022-11-07T00:42:10.218Z,11.20
2022-11-07T00:44:56.724Z,11.10
2022-11-07T00:47:43.097Z,11.00
2022-11-07T00:50:29.500Z,10.90
2022-11-07T00:53:16.285Z,11.00
2022-11-07T00:56:07.545Z,11.00
2022-11-07T00:58:57.655Z,11.00
2022-11-07T01:01:44.418Z,11.10
2022-11-07T01:04:48.362Z,11.10
2022-11-07T01:07:34.985Z,11.20
2022-11-07T01:10:21.782Z,11.10
2022-11-07T01:13:09.780Z,11.10
2022-11-07T01:15:56.167Z,11.10
2022-11-07T01:18:43.098Z,11.20
2022-11-07T01:21:29.746Z,11.20
2022-11-07T01:24:16.944Z,11.30
2022-11-07T01:27:03.447Z,11.20
2022-11-07T01:29:51.080Z,11.20
2022-11-07T01:32:37.320Z,11.30
2022-11-07T01:35:23.859Z,11.20
2022-11-07T01:38:10.294Z,11.30
2022-11-07T01:41:29.123Z,11.20
2022-11-07T01:44:56.674Z,11.30
2022-11-07T01:47:43.486Z,11.30
2022-11-07T01:50:31.350Z,11.20
2022-11-07T01:53:17.954Z,11.30
2022-11-07T01:56:06.144Z,11.30
2022-11-07T01:58:55.305Z,11.00
2022-11-07T02:01:43.716Z,10.90
2022-11-07T02:04:32.247Z,11.00
2022-11-07T02:07:22.696Z,11.00
2022-11-07T02:10:10.738Z,11.10
2022-11-07T02:12:59.029Z,11.10
2022-11-07T02:15:45.596Z,11.00
2022-11-07T02:18:36.571Z,10.90
2022-11-07T02:21:35.589Z,10.90
2022-11-07T02:24:30.388Z,11.00
2022-11-07T02:27:20.846Z,11.10
2022-11-07T02:30:12.231Z,11.10
2022-11-07T02:32:58.771Z,11.10
2022-11-07T02:35:46.808Z,11.10
2022-11-07T02:38:36.624Z,11.20
2022-11-07T02:41:27.215Z,11.10
2022-11-07T02:44:14.029Z,11.10
2022-11-07T02:47:00.579Z,11.20
2022-11-07T02:49:46.883Z,11.20
2022-11-07T02:52:33.188Z,11.20
2022-11-07T02:55:19.590Z,11.20
2022-11-07T02:58:07.836Z,11.10
2022-11-07T03:00:54.250Z,10.90
2022-11-07T03:03:43.366Z,10.90
2022-11-07T03:06:30.127Z,10.90
2022-11-07T03:09:16.663Z,10.80
2022-11-07T03:12:03.479Z,10.80
2022-11-07T03:14:51.348Z,10.90
2022-11-07T03:17:38.294Z,10.80
2022-11-07T03:20:24.848Z,10.80
2022-11-07T03:23:11.278Z,10.90
2022-11-07T03:25:58.222Z,11.00
2022-11-07T03:28:44.511Z,11.10
2022-11-07T03:31:32.368Z,11.10
2022-11-07T03:34:18.706Z,11.10
2022-11-07T03:37:05.261Z,11.00
2022-11-07T03:39:51.778Z,11.20
2022-11-07T03:42:41.618Z,11.20
2022-11-07T03:45:28.009Z,11.20
2022-11-07T03:48:15.893Z,11.30
2022-11-07T03:51:02.263Z,11.30
2022-11-07T03:53:48.639Z,11.40
2022-11-07T03:56:35.522Z,11.40
2022-11-07T03:59:23.930Z,11.40
2022-11-07T04:02:10.622Z,11.40
2022-11-07T04:04:58.931Z,11.40
2022-11-07T04:07:45.493Z,11.50
2022-11-07T04:10:31.969Z,11.50
2022-11-07T04:13:35.803Z,11.50
2022-11-07T04:16:39.824Z,11.60
2022-11-07T04:19:27.133Z,11.60
2022-11-07T04:22:14.805Z,11.60
2022-11-07T04:25:01.275Z,11.50
2022-11-07T04:27:46.836Z,11.50
2022-11-07T04:30:33.248Z,11.50
2022-11-07T04:33:19.578Z,11.40
2022-11-07T04:36:06.447Z,11.30
2022-11-07T04:38:54.135Z,11.40
2022-11-07T04:41:40.464Z,11.30
2022-11-07T04:44:26.867Z,11.30
2022-11-07T04:47:13.327Z,11.30
2022-11-07T04:49:59.643Z,11.20
2022-11-07T04:52:47.069Z,11.30
2022-11-07T04:55:34.692Z,11.30
2022-11-07T04:58:21.034Z,11.20
2022-11-07T05:01:07.402Z,11.20
2022-11-07T05:03:54.014Z,11.30
2022-11-07T05:06:40.279Z,11.20
2022-11-07T05:09:27.367Z,11.30
2022-11-07T05:12:15.472Z,11.30
2022-11-07T05:15:01.806Z,11.30
2022-11-07T05:17:48.155Z,11.30
2022-11-07T05:20:36.168Z,11.30
2022-11-07T05:23:27.773Z,11.30
2022-11-07T05:26:14.135Z,11.30
2022-11-07T05:29:01.891Z,11.30
2022-11-07T05:31:48.389Z,11.40
2022-11-07T05:34:34.691Z,11.40
2022-11-07T05:37:21.132Z,11.50
2022-11-07T05:40:08.976Z,11.50
2022-11-07T05:43:00.468Z,11.50
2022-11-07T05:45:48.271Z,11.40
2022-11-07T05:48:35.425Z,11.50
2022-11-07T05:51:22.066Z,11.50
2022-11-07T05:54:08.453Z,11.50
2022-11-07T05:56:58.081Z,11.50
2022-11-07T05:59:44.749Z,11.60
2022-11-07T06:02:32.708Z,11.50
2022-11-07T06:05:23.988Z,11.50
2022-11-07T06:08:12.959Z,11.40
2022-11-07T06:10:59.564Z,11.40
2022-11-07T06:13:45.956Z,11.20
2022-11-07T06:16:32.344Z,11.20
2022-11-07T06:19:20.193Z,11.10
2022-11-07T06:22:06.520Z,11.20
2022-11-07T06:24:53.216Z,11.20
2022-11-07T06:27:39.673Z,11.20
2022-11-07T06:30:26.324Z,11.20
2022-11-07T06:33:15.734Z,11.20
2022-11-07T06:36:09.425Z,11.20
2022-11-07T06:38:55.752Z,11.30
2022-11-07T06:41:42.184Z,11.10
2022-11-07T06:44:28.699Z,11.00
2022-11-07T06:47:14.960Z,10.90
2022-11-07T06:50:01.410Z,10.80
2022-11-07T06:52:49.183Z,10.90
2022-11-07T06:55:36.150Z,10.90
2022-11-07T06:58:23.124Z,10.90
2022-11-07T07:01:13.515Z,10.90
2022-11-07T07:04:01.178Z,11.00
2022-11-07T07:06:47.948Z,11.00
2022-11-07T07:09:35.943Z,11.10
2022-11-07T07:12:22.454Z,11.10
2022-11-07T07:15:09.873Z,11.20
2022-11-07T07:18:00.355Z,11.30
2022-11-07T07:20:46.707Z,11.30
2022-11-07T07:23:34.627Z,11.40
2022-11-07T07:26:23.175Z,11.40
2022-11-07T07:29:09.839Z,11.50
2022-11-07T07:31:56.342Z,11.50
2022-11-07T07:34:42.932Z,11.70
2022-11-07T07:37:29.339Z,11.80
2022-11-07T07:40:16.567Z,12.00
2022-11-07T07:43:04.339Z,12.20
2022-11-07T07:45:50.909Z,12.40
2022-11-07T07:48:37.212Z,12.50
2022-11-07T07:51:23.669Z,12.60
2022-11-07T07:54:12.157Z,12.80
2022-11-07T07:56:58.667Z,12.80
2022-11-07T07:59:46.456Z,12.90
2022-11-07T08:02:33.103Z,12.90
2022-11-07T08:05:19.754Z,12.90
2022-11-07T08:08:07.262Z,12.90
2022-11-07T08:10:54.644Z,12.80
2022-11-07T08:13:41.151Z,12.80
2022-11-07T08:16:28.895Z,12.80
2022-11-07T08:19:15.750Z,12.60
2022-11-07T08:22:02.387Z,12.50
2022-11-07T08:24:48.823Z,12.50
2022-11-07T08:27:35.467Z,12.60
2022-11-07T08:30:22.176Z,12.70
2022-11-07T08:33:10.249Z,12.70
2022-11-07T08:35:57.135Z,12.80
2022-11-07T08:38:43.789Z,12.90
2022-11-07T08:41:30.294Z,12.90
2022-11-07T08:44:16.778Z,13.00
2022-11-07T08:47:08.191Z,13.00
2022-11-07T08:49:56.524Z,13.10
2022-11-07T08:52:43.064Z,13.10
2022-11-07T08:55:29.483Z,13.30
2022-11-07T08:58:15.831Z,13.40
2022-11-07T09:01:06.060Z,13.40
2022-11-07T09:03:57.636Z,13.40
2022-11-07T09:06:46.274Z,13.50
2022-11-07T09:09:32.750Z,13.60
2022-11-07T09:12:19.263Z,13.70
2022-11-07T09:15:06.737Z,13.80
2022-11-07T09:17:53.198Z,13.80
2022-11-07T09:20:39.566Z,13.80
2022-11-07T09:23:27.954Z,14.00
2022-11-07T09:26:14.517Z,14.20
2022-11-07T09:29:01.464Z,14.40
2022-11-07T09:31:48.371Z,14.50
2022-11-07T09:34:34.788Z,14.80
2022-11-07T09:37:22.157Z,15.00
2022-11-07T09:40:22.523Z,15.10
2022-11-07T09:43:31.386Z,15.20
2022-11-07T09:46:28.520Z,15.00
2022-11-07T09:49:20.414Z,15.10
2022-11-07T09:52:16.483Z,15.10
2022-11-07T09:55:09.518Z,15.00
2022-11-07T09:58:01.855Z,15.00
2022-11-07T10:00:48.608Z,14.90
2022-11-07T10:03:37.910Z,14.80
2022-11-07T10:06:26.156Z,14.90
2022-11-07T10:09:17.726Z,15.00
2022-11-07T10:12:15.161Z,15.10
2022-11-07T10:15:11.700Z,15.10
2022-11-07T10:18:08.093Z,15.10
2022-11-07T10:21:30.966Z,15.00
2022-11-07T10:24:31.747Z,15.10
2022-11-07T10:27:18.056Z,15.20
2022-11-07T10:30:16.342Z,15.20
2022-11-07T10:33:07.841Z,15.20
2022-11-07T10:35:57.183Z,15.30
2022-11-07T10:38:43.951Z,15.40
2022-11-07T10:41:34.273Z,15.40
2022-11-07T10:44:25.315Z,15.30
2022-11-07T10:47:22.035Z,15.30
2022-11-07T10:50:19.715Z,15.30
2022-11-07T10:53:09.578Z,15.40
2022-11-07T10:55:56.778Z,15.40
2022-11-07T10:58:47.158Z,15.50
2022-11-07T11:01:34.016Z,15.50
2022-11-07T11:04:27.093Z,15.60
2022-11-07T11:07:14.479Z,15.40
2022-11-07T11:10:01.066Z,15.20
2022-11-07T11:12:49.151Z,15.20
2022-11-07T11:15:44.955Z,15.10
2022-11-07T11:18:31.328Z,15.10
2022-11-07T11:21:19.568Z,15.10
2022-11-07T11:24:14.584Z,15.10
2022-11-07T11:27:05.668Z,15.20
2022-11-07T11:29:58.495Z,15.20
2022-11-07T11:32:50.410Z,15.20
2022-11-07T11:35:42.402Z,15.30
2022-11-07T11:38:33.801Z,15.60
2022-11-07T11:41:26.235Z,15.80
2022-11-07T11:44:18.946Z,15.80
2022-11-07T11:47:13.767Z,15.80
2022-11-07T11:50:03.726Z,15.90
2022-11-07T11:52:50.279Z,16.20
2022-11-07T11:55:52.025Z,16.10
2022-11-07T11:58:44.701Z,15.80
2022-11-07T12:01:41.971Z,15.80
2022-11-07T12:04:42.904Z,16.10
2022-11-07T12:07:45.610Z,16.40
2022-11-07T12:10:42.216Z,16.50
2022-11-07T12:13:35.600Z,16.60
2022-11-07T12:16:31.329Z,16.50
2022-11-07T12:19:24.042Z,16.50
2022-11-07T12:22:20.460Z,16.30
2022-11-07T12:25:16.656Z,16.30
2022-11-07T12:28:22.626Z,16.30
2022-11-07T12:31:21.698Z,16.40
2022-11-07T12:34:20.519Z,16.30
2022-11-07T12:37:21.882Z,16.30
2022-11-07T12:40:25.243Z,16.10
2022-11-07T12:43:24.216Z,15.90
2022-11-07T12:46:21.610Z,15.80
2022-11-07T12:49:42.051Z,15.60
2022-11-07T12:52:42.199Z,15.60
2022-11-07T12:55:34.538Z,15.70
2022-11-07T12:58:26.182Z,15.70
2022-11-07T13:01:16.419Z,15.90
2022-11-07T13:04:10.275Z,16.10
2022-11-07T13:07:01.151Z,16.30
2022-11-07T13:09:53.129Z,16.40
2022-11-07T13:12:44.742Z,16.30
2022-11-07T13:15:53.813Z,16.30
2022-11-07T13:21:41.228Z,16.30
2022-11-07T13:24:27.973Z,16.10
2022-11-07T13:27:22.823Z,16.00
2022-11-07T13:30:20.872Z,15.80
2022-11-07T13:33:30.571Z,15.80
2022-11-07T13:36:28.224Z,15.70
2022-11-07T13:39:15.647Z,15.80
2022-11-07T13:42:02.672Z,15.80
2022-11-07T13:44:55.426Z,15.70
2022-11-07T13:47:43.714Z,15.80
2022-11-07T13:50:41.408Z,15.80
2022-11-07T13:53:33.288Z,15.80
2022-11-07T13:56:28.821Z,15.80
2022-11-07T13:59:37.084Z,15.80
2022-11-07T14:02:25.623Z,15.80
2022-11-07T14:05:17.957Z,15.70
2022-11-07T14:08:08.529Z,15.60
2022-11-07T14:10:56.227Z,15.60
2022-11-07T14:13:43.161Z,15.50
2022-11-07T14:16:30.726Z,15.40
2022-11-07T14:19:19.143Z,15.40
2022-11-07T14:22:08.740Z,15.30
2022-11-07T14:25:00.124Z,15.30
2022-11-07T14:27:47.513Z,15.20
2022-11-07T14:30:33.963Z,15.20
2022-11-07T14:33:21.953Z,15.20
2022-11-07T14:36:08.643Z,15.20
2022-11-07T14:38:57.661Z,15.20
2022-11-07T14:41:45.884Z,15.20
2022-11-07T14:47:44.380Z,15.30
2022-11-07T14:50:31.323Z,15.40
2022-11-07T14:53:24.426Z,15.30
2022-11-07T14:56:16.859Z,15.30
2022-11-07T14:59:05.512Z,15.30
2022-11-07T15:01:54.909Z,15.20
2022-11-07T15:04:44.252Z,15.10
2022-11-07T15:07:32.362Z,15.10
2022-11-07T15:10:28.787Z,15.10
2022-11-07T15:13:26.200Z,15.10
2022-11-07T15:16:18.887Z,15.20
2022-11-07T15:19:08.579Z,15.10
2022-11-07T15:21:57.821Z,15.10
2022-11-07T15:24:45.820Z,15.00
2022-11-07T15:27:36.122Z,14.90
2022-11-07T15:30:30.020Z,14.80
2022-11-07T15:33:19.422Z,14.80
2022-11-07T15:36:06.663Z,14.80
2022-11-07T15:38:54.063Z,14.80
2022-11-07T15:41:40.445Z,14.80
2022-11-07T15:44:26.796Z,14.80
2022-11-07T15:47:18.471Z,14.90
2022-11-07T15:50:16.280Z,14.90
2022-11-07T15:53:02.600Z,14.90
2022-11-07T15:55:49.871Z,14.80
2022-11-07T15:58:36.677Z,14.80
2022-11-07T16:01:23.841Z,14.70
2022-11-07T16:04:11.150Z,14.70
2022-11-07T16:06:59.169Z,14.70
2022-11-07T16:09:48.410Z,14.60
2022-11-07T16:12:34.962Z,14.50
2022-11-07T16:15:25.749Z,14.50
2022-11-07T16:18:18.134Z,14.40
2022-11-07T16:21:05.723Z,14.30
2022-11-07T16:23:53.726Z,14.20
2022-11-07T16:26:41.137Z,14.20
2022-11-07T16:29:28.093Z,14.20
2022-11-07T16:32:18.329Z,14.10
2022-11-07T16:35:05.246Z,14.20
2022-11-07T16:37:52.327Z,14.20
2022-11-07T16:40:40.270Z,14.20
2022-11-07T16:43:26.897Z,14.10
2022-11-07T16:46:15.588Z,14.00
2022-11-07T16:49:12.504Z,13.90
2022-11-07T16:51:59.700Z,13.80
2022-11-07T16:54:47.206Z,13.60
2022-11-07T16:57:37.143Z,13.50
2022-11-07T17:00:26.617Z,13.50
2022-11-07T17:03:13.540Z,13.40
2022-11-07T17:06:01.834Z,13.40
2022-11-07T17:08:49.048Z,13.40
2022-11-07T17:11:35.835Z,13.40
2022-11-07T17:14:24.859Z,13.50
2022-11-07T17:17:13.197Z,13.60
2022-11-07T17:19:59.480Z,13.70
2022-11-07T17:22:46.069Z,13.80
2022-11-07T17:25:32.788Z,13.80
2022-11-07T17:28:19.312Z,13.90
2022-11-07T17:31:07.451Z,13.90
2022-11-07T17:33:53.975Z,13.90
2022-11-07T17:36:45.973Z,13.90
2022-11-07T17:39:32.267Z,13.90
2022-11-07T17:42:18.627Z,13.80
2022-11-07T17:45:05.748Z,13.90
2022-11-07T17:47:54.099Z,13.90
2022-11-07T17:50:40.675Z,13.80
2022-11-07T17:53:27.385Z,13.90
2022-11-07T17:56:17.715Z,13.90
2022-11-07T17:59:06.969Z,13.90
2022-11-07T18:01:53.762Z,13.80
2022-11-07T18:04:42.168Z,13.90
2022-11-07T18:07:28.530Z,13.90
2022-11-07T18:10:16.423Z,13.80
2022-11-07T18:13:02.867Z,13.80
2022-11-07T18:15:49.312Z,13.80
2022-11-07T18:18:36.404Z,13.80
2022-11-07T18:21:24.527Z,13.70
2022-11-07T18:24:10.966Z,13.70
2022-11-07T18:26:57.431Z,13.60
2022-11-07T18:29:44.161Z,13.60
2022-11-07T18:32:35.786Z,13.60
2022-11-07T18:35:23.617Z,13.40
2022-11-07T18:38:11.500Z,13.40
2022-11-07T18:40:58.906Z,13.40
2022-11-07T18:43:45.635Z,13.20
2022-11-07T18:46:32.434Z,13.20
2022-11-07T18:49:19.664Z,13.30
2022-11-07T18:52:06.557Z,13.40
2022-11-07T18:54:54.600Z,13.30
2022-11-07T18:57:42.337Z,13.30
2022-11-07T19:00:29.403Z,13.20
2022-11-07T19:03:16.278Z,13.30
2022-11-07T19:06:05.162Z,13.10
2022-11-07T19:08:51.644Z,13.00
2022-11-07T19:11:39.779Z,13.00
2022-11-07T19:14:26.902Z,13.00
2022-11-07T19:17:13.551Z,13.10
2022-11-07T19:20:00.062Z,13.00
2022-11-07T19:22:46.577Z,13.00
2022-11-07T19:25:32.953Z,12.90
2022-11-07T19:28:21.281Z,12.80
2022-11-07T19:31:09.446Z,12.80
2022-11-07T19:33:56.335Z,12.90
2022-11-07T19:36:42.769Z,12.90
2022-11-07T19:39:30.721Z,12.90
2022-11-07T19:42:17.369Z,12.90
2022-11-07T19:45:05.667Z,12.90
2022-11-07T19:47:52.517Z,12.90
2022-11-07T19:50:39.854Z,12.80
2022-11-07T19:53:26.185Z,12.70
2022-11-07T19:56:15.823Z,12.60
2022-11-07T19:59:02.569Z,12.60
2022-11-07T20:02:10.585Z,12.40
2022-11-07T20:04:57.034Z,12.40
2022-11-07T20:07:43.441Z,12.30
2022-11-07T20:10:30.288Z,12.30
2022-11-07T20:13:17.041Z,12.20
2022-11-07T20:16:04.590Z,12.20
2022-11-07T20:18:52.562Z,12.10
2022-11-07T20:21:38.889Z,12.10
2022-11-07T20:24:25.272Z,12.20
2022-11-07T20:27:11.833Z,12.10
2022-11-07T20:29:59.297Z,12.00
2022-11-07T20:32:46.155Z,12.00
2022-11-07T20:35:34.127Z,11.90
2022-11-07T20:38:20.511Z,11.90
2022-11-07T20:41:07.528Z,12.00
2022-11-07T20:43:55.286Z,12.00
2022-11-07T20:46:44.304Z,11.90
2022-11-07T20:49:31.049Z,11.80
2022-11-07T20:52:18.832Z,11.80
2022-11-07T20:55:05.779Z,11.80
2022-11-07T20:57:52.718Z,11.80
2022-11-07T21:00:40.614Z,11.80
2022-11-07T21:03:27.602Z,11.80
2022-11-07T21:06:14.598Z,11.80
2022-11-07T21:09:02.520Z,11.80
2022-11-07T21:11:48.900Z,11.80
2022-11-07T21:14:37.235Z,11.90
2022-11-07T21:17:24.123Z,11.90
2022-11-07T21:20:11.215Z,11.90
2022-11-07T21:22:57.771Z,11.80
2022-11-07T21:25:48.383Z,11.80
2022-11-07T21:28:35.251Z,11.80
2022-11-07T21:31:24.891Z,11.70
2022-11-07T21:34:11.750Z,11.60
2022-11-07T21:36:58.455Z,11.50
2022-11-07T21:39:45.023Z,11.50
2022-11-07T21:42:32.719Z,11.50
2022-11-07T21:45:19.375Z,11.50
2022-11-07T21:48:06.687Z,11.50
2022-11-07T21:50:53.288Z,11.40
2022-11-07T21:53:39.639Z,11.30
2022-11-07T21:56:27.476Z,11.30
2022-11-07T21:59:15.566Z,11.20
2022-11-07T22:02:02.380Z,11.10
2022-11-07T22:04:49.355Z,11.20
2022-11-07T22:07:36.517Z,11.10
2022-11-07T22:10:23.055Z,11.00
2022-11-07T22:13:09.534Z,10.90
2022-11-07T22:16:05.207Z,10.80
2022-11-07T22:18:52.141Z,10.70
2022-11-07T22:21:38.999Z,10.80
2022-11-07T22:24:27.198Z,10.90
2022-11-07T22:27:13.879Z,10.80
2022-11-07T22:30:00.321Z,10.70
2022-11-07T22:32:48.038Z,10.60
2022-11-07T22:35:34.826Z,10.50
2022-11-07T22:38:21.486Z,10.60
2022-11-07T22:41:09.048Z,10.60
2022-11-07T22:43:55.946Z,10.50
2022-11-07T22:46:42.785Z,10.50
2022-11-07T22:49:30.608Z,10.50
2022-11-07T22:52:17.299Z,10.40
2022-11-07T22:55:03.837Z,10.40
2022-11-07T22:57:52.288Z,10.50
2022-11-07T23:00:38.804Z,10.60
2022-11-07T23:03:25.201Z,10.60
2022-11-07T23:06:13.111Z,10.50
2022-11-07T23:09:00.268Z,10.40
2022-11-07T23:11:48.239Z,10.40
2022-11-07T23:14:35.755Z,10.30
2022-11-07T23:17:22.482Z,10.30
2022-11-07T23:20:10.597Z,10.30
2022-11-07T23:22:58.690Z,10.20
2022-11-07T23:25:45.251Z,10.20
2022-11-07T23:28:34.764Z,10.20
2022-11-07T23:31:21.345Z,10.10
2022-11-07T23:34:08.819Z,10.10
2022-11-07T23:36:55.685Z,10.20
2022-11-07T23:39:43.528Z,10.10
2022-11-07T23:42:31.008Z,10.20
2022-11-07T23:45:35.563Z,10.20
2022-11-07T23:48:39.376Z,10.20
2022-11-07T23:51:25.945Z,10.20
2022-11-07T23:54:29.512Z,10.20
2022-11-07T23:57:17.701Z,10.00
